• Join FlightAware (Why Join?)
  • Login
  • US Flag 
10:30PM EDT


 

Airport Tracker/Info


-or-


 

Live Flight TrackerFlight Track Log ✈ PDT4226 ✈ 23-Oct-2013 ✈ KBGM - KPHL

Flight Track Log - Related Links

Times and Time Zones

All times are in EDT time to prevent confusion due to time zone crossing. See the PDT4226 flight status page for this flight to view local times or setup timezone preferences in your user account.

Time Position Orientation Groundspeed Altitude Reporting Facility
EDT Latitude Longitude Course Direction KTS MPH feet Rate Location/Type
02:08PM 41.8612 -75.8663 159° South  Level Estimated
02:09PM 41.7743 -75.8382 153° Southeast  Level Estimated
02:10PM 41.6875 -75.8101 161° South  Level Estimated
02:11PM 41.6004 -75.7838 167° South  Level FlightAware Approximate
02:12PM 41.5135 -75.7558 162° South  Level Estimated
02:13PM 41.4275 -75.7239 164° South  Level FlightAware Approximate
02:14PM 41.3414 -75.6920 164° South  Level FlightAware Approximate
02:15PM 41.2545 -75.6648 159° South  Level Estimated
02:16PM 41.1675 -75.6376 163° South  Level Estimated
02:17PM 41.0823 -75.6019 162° South  Level FlightAware Approximate
02:18PM 40.9971 -75.5664 163° South  Level FlightAware Approximate
02:19PM 40.9099 -75.5407 190° South  Level Estimated
02:20PM 40.8208 -75.5318 176° South  Level FlightAware Approximate
02:21PM 40.7339 -75.5048 187° South  Level Estimated
02:22PM 40.6469 -75.4779 190° South  Level Estimated
02:23PM 40.5584 -75.4940 188° South  Level FlightAware Approximate
02:24PM 40.4725 -75.4620 143° Southeast  Level Estimated
02:25PM 40.3865 -75.4301 143° Southeast  Level Estimated
02:26PM 40.3005 -75.3982 143° Southeast  Level Estimated
02:27PM 40.2146 -75.3665 123° Southeast  Level Estimated
02:28PM 40.1286 -75.3348 150° Southeast  Level Estimated
02:29PM 40.0426 -75.3032 150° Southeast  Level Estimated
02:30PM 39.9566 -75.2717 150° Southeast  Level Estimated
02:31PM 39.8667 -75.2333 150° Southeast  Level FlightAware Approximate
02:32PM 39.8722 -75.2409 150° Southeast  Level Estimated
02:32PM 40.6000 -75.4833 150° Southeast 213 245 4,900  Level Philadelphia TRACON
02:33PM 39.8722 -75.2409 150° Southeast  Level Estimated
02:33PM 40.5333 -75.5000 191° South 214 246 5,000  Level Philadelphia TRACON
02:34PM 39.8722 -75.2409 150° Southeast  Level Estimated
02:34PM 40.4833 -75.5000 180° South 216 249 5,000  Level Philadelphia TRACON
02:35PM 39.8722 -75.2409 150° Southeast  Level Estimated
02:35PM 40.4167 -75.5167 191° South 219 252 5,000  Level Philadelphia TRACON
02:36PM 39.8722 -75.2409 150° Southeast  Level Estimated
02:36PM 40.3667 -75.5333 194° South 215 247 5,000  Level Philadelphia TRACON
02:37PM 39.8722 -75.2409 150° Southeast  Level Estimated
02:37PM 40.3000 -75.5500 191° South 215 247 5,000  Level Philadelphia TRACON
02:38PM 39.8722 -75.2409 150° Southeast  Level Estimated
02:38PM 40.2333 -75.5500 180° South 214 246 5,000  Level Philadelphia TRACON
02:39PM 40.1833 -75.5500 180° South 216 249 5,000  Level Philadelphia TRACON
02:40PM 40.1167 -75.5333 169° South 221 254 5,000  Level Philadelphia TRACON
02:41PM 40.0667 -75.5167 166° South 220 253 5,000  Level Philadelphia TRACON
02:42PM 40.0000 -75.5333 191° South 210 242 5,000  Level Philadelphia TRACON
02:43PM 39.9667 -75.5667 217° Southwest 216 249 5,000  Level Philadelphia TRACON
02:44PM 39.9167 -75.6167 217° Southwest 217 250 5,000 -60 Level Philadelphia TRACON
02:45PM 39.8500 -75.6333 191° South 223 257 4,900 -480 Descending Philadelphia TRACON
02:46PM 39.8000 -75.6000 153° Southeast 221 254 4,000 -660 Descending Philadelphia TRACON
02:47PM 39.8167 -75.5333 72° East 196 226 3,500 -780 Descending Philadelphia TRACON
02:48PM 39.8167 -75.4667 90° East 194 223 2,600 -780 Descending Philadelphia TRACON
02:49PM 39.8333 -75.4000 72° East 178 205 2,100 -720 Descending Philadelphia TRACON
02:50PM 39.8500 -75.3500 67° East 181 208 1,200 -900 Descending Philadelphia TRACON
02:51PM 39.8500 -75.3000 90° East 130 150 400 -900 Descending Philadelphia TRACON